createdAt,value
2023-07-01T00:01:03.906Z,39.70
2023-07-01T00:03:31.500Z,40.15
2023-07-01T00:05:59.606Z,39.58
2023-07-01T00:08:26.604Z,39.00
2023-07-01T00:10:53.788Z,42.50
2023-07-01T00:13:20.376Z,39.72
2023-07-01T00:15:46.854Z,44.65
2023-07-01T00:18:13.310Z,41.80
2023-07-01T00:20:39.741Z,41.20
2023-07-01T00:23:06.194Z,42.30
2023-07-01T00:25:32.637Z,42.78
2023-07-01T00:27:59.076Z,41.45
2023-07-01T00:30:25.556Z,39.97
2023-07-01T00:32:51.991Z,40.85
2023-07-01T00:35:18.490Z,40.13
2023-07-01T00:37:44.993Z,40.60
2023-07-01T00:40:11.901Z,41.13
2023-07-01T00:42:38.333Z,40.50
2023-07-01T00:45:05.698Z,40.17
2023-07-01T00:47:32.197Z,42.58
2023-07-01T00:49:58.749Z,43.33
2023-07-01T00:52:25.478Z,40.70
2023-07-01T00:54:51.907Z,40.20
2023-07-01T00:57:18.419Z,40.40
2023-07-01T00:59:44.945Z,40.75
2023-07-01T01:02:36.216Z,42.22
2023-07-01T01:05:11.584Z,42.67
2023-07-01T01:07:58.569Z,42.60
2023-07-01T01:10:28.877Z,43.10
2023-07-01T01:12:58.866Z,41.85
2023-07-01T01:15:27.512Z,41.73
2023-07-01T01:17:58.221Z,42.55
2023-07-01T01:20:26.170Z,41.58
2023-07-01T01:23:02.222Z,39.25
2023-07-01T01:25:35.855Z,38.20
2023-07-01T01:28:04.126Z,41.38
2023-07-01T01:30:34.574Z,39.25
2023-07-01T01:33:02.605Z,40.80
2023-07-01T01:35:29.978Z,39.25
2023-07-01T01:38:06.191Z,40.47
2023-07-01T01:40:34.837Z,40.78
2023-07-01T01:43:13.214Z,41.67
2023-07-01T01:45:40.526Z,41.25
2023-07-01T01:48:08.098Z,42.72
2023-07-01T01:50:37.744Z,43.90
2023-07-01T01:53:05.174Z,47.08
2023-07-01T01:55:32.215Z,47.88
2023-07-01T01:58:00.141Z,48.70
2023-07-01T02:00:26.824Z,45.90
2023-07-01T02:02:53.349Z,49.35
2023-07-01T02:05:19.965Z,50.25
2023-07-01T02:07:46.538Z,46.47
2023-07-01T02:10:14.570Z,49.75
2023-07-01T02:12:41.031Z,47.78
2023-07-01T02:15:08.185Z,51.50
2023-07-01T02:17:34.639Z,47.65
2023-07-01T02:20:01.126Z,47.22
2023-07-01T02:22:27.618Z,50.33
2023-07-01T02:24:54.062Z,46.25
2023-07-01T02:27:20.501Z,49.78
2023-07-01T02:29:48.606Z,48.33
2023-07-01T02:32:15.316Z,45.83
2023-07-01T02:34:41.806Z,46.85
2023-07-01T02:37:08.397Z,48.78
2023-07-01T02:39:34.847Z,47.28
2023-07-01T02:42:01.404Z,47.88
2023-07-01T02:44:27.898Z,50.58
2023-07-01T02:46:54.380Z,51.15
2023-07-01T02:49:21.675Z,50.13
2023-07-01T02:51:48.129Z,54.35
2023-07-01T02:54:14.610Z,55.08
2023-07-01T02:56:41.162Z,52.15
2023-07-01T02:59:07.697Z,50.17
2023-07-01T03:01:34.247Z,50.03
2023-07-01T03:04:05.728Z,52.03
2023-07-01T03:06:45.925Z,52.42
2023-07-01T03:09:12.401Z,53.92
2023-07-01T03:11:38.832Z,54.05
2023-07-01T03:14:05.325Z,50.13
2023-07-01T03:16:32.244Z,56.42
2023-07-01T03:18:59.676Z,53.30
2023-07-01T03:21:27.333Z,54.22
2023-07-01T03:23:54.111Z,54.88
2023-07-01T03:26:20.574Z,55.95
2023-07-01T03:28:47.121Z,54.45
2023-07-01T03:31:13.653Z,54.80
2023-07-01T03:33:40.194Z,53.30
2023-07-01T03:36:07.411Z,55.47
2023-07-01T03:38:33.865Z,56.80
2023-07-01T03:41:00.356Z,54.25
2023-07-01T03:43:28.336Z,53.28
2023-07-01T03:45:57.794Z,53.67
2023-07-01T03:48:24.322Z,53.05
2023-07-01T03:50:50.926Z,51.60
2023-07-01T03:53:17.710Z,55.92
2023-07-01T03:55:44.248Z,53.85
2023-07-01T03:58:11.629Z,53.88
2023-07-01T04:00:38.096Z,54.47
2023-07-01T04:03:10.154Z,55.47
2023-07-01T04:05:36.882Z,55.05
2023-07-01T04:08:03.798Z,55.97
2023-07-01T04:10:30.567Z,55.00
2023-07-01T04:12:59.080Z,51.65
2023-07-01T04:15:25.954Z,53.72
2023-07-01T04:17:52.971Z,54.95
2023-07-01T04:20:22.339Z,52.92
2023-07-01T04:22:49.035Z,55.88
2023-07-01T04:25:15.737Z,55.28
2023-07-01T04:27:45.082Z,51.97
2023-07-01T04:30:13.415Z,57.05
2023-07-01T04:32:40.393Z,53.45
2023-07-01T04:35:07.563Z,50.67
2023-07-01T04:37:34.634Z,54.10
2023-07-01T04:40:01.726Z,53.15
2023-07-01T04:42:28.168Z,49.90
2023-07-01T04:44:57.195Z,53.47
2023-07-01T04:47:24.599Z,53.10
2023-07-01T04:49:53.934Z,51.17
2023-07-01T04:52:25.389Z,51.35
2023-07-01T04:54:52.525Z,52.03
2023-07-01T04:57:19.007Z,52.15
2023-07-01T04:59:45.550Z,52.15
2023-07-01T05:02:12.197Z,52.92
2023-07-01T05:04:39.441Z,51.63
2023-07-01T05:07:07.223Z,55.55
2023-07-01T05:09:33.794Z,55.60
2023-07-01T05:12:00.254Z,54.13
2023-07-01T05:14:26.718Z,53.70
2023-07-01T05:16:53.263Z,50.05
2023-07-01T05:19:19.749Z,48.33
2023-07-01T05:21:54.498Z,52.60
2023-07-01T05:24:21.826Z,50.85
2023-07-01T05:26:52.246Z,51.45
2023-07-01T05:29:21.817Z,51.45
2023-07-01T05:31:49.776Z,51.90
2023-07-01T05:34:16.772Z,53.97
2023-07-01T05:36:43.845Z,49.00
2023-07-01T05:39:10.973Z,48.03
2023-07-01T05:41:37.477Z,49.15
2023-07-01T05:44:04.893Z,46.22
2023-07-01T05:46:31.797Z,49.55
2023-07-01T05:48:58.443Z,50.42
2023-07-01T05:51:25.159Z,47.28
2023-07-01T05:53:51.678Z,46.60
2023-07-01T05:56:18.228Z,47.38
2023-07-01T05:58:44.764Z,49.20
2023-07-01T06:01:11.335Z,47.60
2023-07-01T06:03:37.899Z,47.13
2023-07-01T06:06:04.460Z,45.97
2023-07-01T06:08:30.968Z,47.45
2023-07-01T06:10:57.496Z,49.83
2023-07-01T06:13:23.960Z,49.45
2023-07-01T06:15:50.469Z,50.15
2023-07-01T06:18:17.014Z,49.88
2023-07-01T06:20:44.458Z,47.63
2023-07-01T06:23:11.297Z,47.92
2023-07-01T06:25:38.024Z,44.42
2023-07-01T06:28:04.659Z,45.03
2023-07-01T06:30:31.157Z,42.85
2023-07-01T06:32:57.685Z,44.65
2023-07-01T06:35:24.283Z,41.45
2023-07-01T06:37:56.856Z,46.90
2023-07-01T06:40:23.587Z,44.30
2023-07-01T06:42:50.185Z,48.60
2023-07-01T06:45:16.728Z,42.70
2023-07-01T06:47:43.322Z,43.55
2023-07-01T06:50:10.011Z,41.33
2023-07-01T06:52:36.595Z,40.75
2023-07-01T06:55:04.157Z,40.00
2023-07-01T06:57:37.445Z,36.70
2023-07-01T07:00:04.620Z,39.75
2023-07-01T07:02:31.155Z,38.17
2023-07-01T07:04:57.759Z,37.97
2023-07-01T07:07:24.245Z,38.55
2023-07-01T07:09:50.811Z,36.65
2023-07-01T07:12:17.310Z,36.40
2023-07-01T07:14:43.811Z,34.63
2023-07-01T07:17:10.277Z,34.13
2023-07-01T07:19:38.546Z,35.22
2023-07-01T07:22:06.370Z,33.47
2023-07-01T07:24:32.916Z,38.95
2023-07-01T07:27:02.158Z,35.45
2023-07-01T07:29:30.053Z,33.95
2023-07-01T07:31:57.365Z,35.83
2023-07-01T07:34:24.816Z,33.53
2023-07-01T07:36:51.877Z,33.40
2023-07-01T07:39:18.361Z,31.92
2023-07-01T07:41:45.788Z,29.52
2023-07-01T07:44:13.159Z,31.40
2023-07-01T07:46:41.130Z,31.80
2023-07-01T07:49:07.697Z,29.65
2023-07-01T07:51:34.231Z,26.67
2023-07-01T07:54:01.025Z,28.13
2023-07-01T07:56:27.676Z,28.98
2023-07-01T07:58:57.411Z,29.25
2023-07-01T08:01:23.908Z,27.73
2023-07-01T08:03:50.679Z,27.17
2023-07-01T08:06:28.715Z,25.92
2023-07-01T08:09:00.559Z,25.85
2023-07-01T08:11:30.120Z,27.83
2023-07-01T08:13:57.049Z,28.05
2023-07-01T08:16:23.580Z,27.65
2023-07-01T08:18:50.129Z,27.15
2023-07-01T08:21:16.737Z,26.13
2023-07-01T08:23:43.254Z,25.05
2023-07-01T08:26:09.683Z,25.25
2023-07-01T08:28:36.423Z,25.23
2023-07-01T08:31:03.537Z,27.65
2023-07-01T08:33:30.093Z,27.30
2023-07-01T08:35:58.267Z,22.95
2023-07-01T08:38:24.934Z,25.48
2023-07-01T08:40:54.193Z,25.60
2023-07-01T08:43:24.602Z,23.77
2023-07-01T08:45:52.785Z,24.95
2023-07-01T08:48:23.183Z,22.73
2023-07-01T08:51:25.576Z,21.77
2023-07-01T08:53:53.589Z,21.58
2023-07-01T08:56:21.031Z,25.63
2023-07-01T08:58:48.533Z,24.95
2023-07-01T09:01:16.240Z,19.45
2023-07-01T09:03:43.429Z,22.85
2023-07-01T09:06:09.952Z,21.58
2023-07-01T09:08:40.133Z,18.17
2023-07-01T09:11:07.886Z,23.30
2023-07-01T09:13:34.411Z,20.42
2023-07-01T09:16:00.957Z,21.60
2023-07-01T09:18:32.014Z,22.88
2023-07-01T09:20:59.938Z,19.58
2023-07-01T09:23:33.510Z,18.80
2023-07-01T09:26:11.928Z,17.67
2023-07-01T09:28:40.043Z,17.90
2023-07-01T09:31:09.587Z,19.35
2023-07-01T09:33:36.641Z,19.33
2023-07-01T09:36:04.158Z,22.05
2023-07-01T09:38:32.103Z,19.92
2023-07-01T09:41:14.791Z,20.23
2023-07-01T09:43:41.895Z,22.70
2023-07-01T09:46:11.342Z,23.27
2023-07-01T09:48:37.855Z,22.08
2023-07-01T09:51:05.938Z,18.38
2023-07-01T09:53:36.695Z,19.27
2023-07-01T09:58:35.198Z,19.92
2023-07-01T10:01:02.589Z,20.77
2023-07-01T10:03:29.443Z,18.48
2023-07-01T10:05:56.206Z,18.75
2023-07-01T10:08:23.551Z,17.77
2023-07-01T10:11:19.214Z,18.50
2023-07-01T10:13:52.146Z,17.85
2023-07-01T10:16:20.095Z,19.05
2023-07-01T10:18:47.365Z,17.83
2023-07-01T10:21:31.311Z,17.83
2023-07-01T10:24:01.953Z,17.38
2023-07-01T10:26:38.668Z,17.08
2023-07-01T10:29:40.960Z,17.23
2023-07-01T10:32:10.804Z,15.02
2023-07-01T10:34:56.247Z,16.93
2023-07-01T10:37:27.244Z,18.02
2023-07-01T10:39:55.408Z,16.58
2023-07-01T10:42:35.186Z,18.63
2023-07-01T10:45:14.239Z,16.50
2023-07-01T10:48:04.135Z,17.60
2023-07-01T10:50:30.887Z,17.45
2023-07-01T10:52:57.606Z,16.48
2023-07-01T10:55:49.052Z,17.55
2023-07-01T10:58:22.874Z,17.13
2023-07-01T11:00:51.845Z,14.88
2023-07-01T11:03:37.260Z,17.10
2023-07-01T11:06:08.645Z,14.40
2023-07-01T11:08:44.933Z,14.05
2023-07-01T11:11:11.981Z,16.25
2023-07-01T11:13:38.460Z,16.25
2023-07-01T11:16:06.632Z,13.93
2023-07-01T11:18:50.320Z,14.00
2023-07-01T11:21:21.870Z,16.98
2023-07-01T11:23:57.232Z,13.93
2023-07-01T11:26:29.972Z,16.77
2023-07-01T11:28:56.506Z,14.73
2023-07-01T11:31:28.059Z,15.95
2023-07-01T11:33:56.158Z,14.93
2023-07-01T11:36:39.202Z,14.48
2023-07-01T11:39:18.218Z,14.27
2023-07-01T11:41:51.656Z,15.48
2023-07-01T11:44:21.541Z,17.17
2023-07-01T11:46:48.280Z,14.95
2023-07-01T11:49:18.670Z,13.70
2023-07-01T11:51:56.200Z,13.57
2023-07-01T11:54:26.311Z,13.73
2023-07-01T11:57:10.815Z,15.32
2023-07-01T11:59:38.905Z,15.00
2023-07-01T12:02:06.213Z,14.75
2023-07-01T12:04:34.185Z,15.70
2023-07-01T12:07:13.768Z,15.18
2023-07-01T12:09:42.558Z,13.38
2023-07-01T12:12:11.064Z,14.38
2023-07-01T12:14:37.904Z,14.18
2023-07-01T12:17:04.636Z,13.35
2023-07-01T12:19:32.274Z,12.60
2023-07-01T12:22:00.269Z,12.75
2023-07-01T12:24:30.021Z,12.02
2023-07-01T12:26:58.602Z,13.83
2023-07-01T12:29:25.911Z,11.57
2023-07-01T12:31:54.953Z,14.15
2023-07-01T12:34:21.858Z,12.15
2023-07-01T12:36:49.008Z,12.23
2023-07-01T12:39:18.565Z,11.82
2023-07-01T12:41:50.250Z,10.77
2023-07-01T12:44:16.757Z,11.50
2023-07-01T12:46:45.658Z,12.82
2023-07-01T12:49:13.596Z,11.38
2023-07-01T12:51:42.168Z,10.60
2023-07-01T12:54:17.585Z,10.77
2023-07-01T12:56:44.712Z,11.68
2023-07-01T12:59:11.411Z,13.18
2023-07-01T13:01:38.031Z,13.13
2023-07-01T13:04:08.044Z,13.68
2023-07-01T13:06:39.986Z,13.00
2023-07-01T13:09:10.903Z,11.95
2023-07-01T13:11:38.758Z,12.10
2023-07-01T13:14:11.954Z,10.98
2023-07-01T13:16:40.647Z,10.27
2023-07-01T13:19:13.030Z,12.40
2023-07-01T13:21:42.326Z,10.70
2023-07-01T13:24:16.245Z,10.68
2023-07-01T13:26:44.816Z,10.45
2023-07-01T13:29:14.137Z,9.82
2023-07-01T13:31:42.548Z,10.77
2023-07-01T13:34:09.510Z,9.73
2023-07-01T13:36:38.843Z,9.52
2023-07-01T13:39:10.131Z,7.78
2023-07-01T13:41:36.709Z,9.07
2023-07-01T13:44:30.322Z,10.90
2023-07-01T13:46:57.504Z,11.63
2023-07-01T13:49:27.006Z,10.05
2023-07-01T13:51:54.880Z,8.43
2023-07-01T13:54:23.975Z,8.02
2023-07-01T13:56:55.475Z,9.55
2023-07-01T13:59:23.432Z,8.60
2023-07-01T14:02:00.682Z,8.65
2023-07-01T14:04:32.155Z,9.93
2023-07-01T14:07:03.442Z,10.60
2023-07-01T14:09:32.813Z,7.93
2023-07-01T14:12:00.320Z,8.82
2023-07-01T14:14:32.201Z,8.68
2023-07-01T14:17:00.718Z,8.75
2023-07-01T14:19:27.929Z,9.15
2023-07-01T14:21:55.797Z,8.57
2023-07-01T14:24:30.950Z,8.32
2023-07-01T14:26:59.815Z,9.45
2023-07-01T14:29:27.329Z,8.32
2023-07-01T14:31:55.322Z,11.02
2023-07-01T14:34:32.584Z,8.35
2023-07-01T14:36:59.921Z,7.80
2023-07-01T14:39:46.086Z,8.07
2023-07-01T14:42:23.916Z,7.60
2023-07-01T14:44:54.468Z,6.40
2023-07-01T14:49:48.419Z,7.20
2023-07-01T14:52:17.963Z,9.32
2023-07-01T14:54:46.371Z,7.35
2023-07-01T14:57:12.904Z,8.07
2023-07-01T14:59:40.517Z,7.63
2023-07-01T15:02:07.699Z,7.43
2023-07-01T15:04:34.251Z,7.57
2023-07-01T15:07:00.796Z,7.22
2023-07-01T15:09:27.409Z,10.00
2023-07-01T15:11:54.394Z,8.50
2023-07-01T15:14:20.897Z,9.73
2023-07-01T15:16:47.367Z,10.30
2023-07-01T15:19:13.825Z,8.48
2023-07-01T15:21:40.495Z,8.25
2023-07-01T15:24:07.211Z,9.63
2023-07-01T15:26:35.440Z,10.07
2023-07-01T15:29:01.898Z,8.55
2023-07-01T15:31:28.355Z,9.85
2023-07-01T15:33:54.866Z,10.35
2023-07-01T15:36:21.316Z,8.30
2023-07-01T15:38:48.358Z,9.25
2023-07-01T15:41:14.938Z,10.50
2023-07-01T15:43:42.562Z,9.38
2023-07-01T15:46:09.814Z,8.40
2023-07-01T15:48:36.539Z,9.70
2023-07-01T15:51:03.360Z,8.00
2023-07-01T15:53:29.899Z,8.10
2023-07-01T15:55:56.530Z,9.23
2023-07-01T15:58:23.473Z,8.50
2023-07-01T16:00:49.947Z,9.40
2023-07-01T16:03:17.479Z,8.38
2023-07-01T16:05:45.860Z,8.60
2023-07-01T16:08:16.748Z,9.38
2023-07-01T16:10:45.096Z,10.43
2023-07-01T16:13:27.305Z,9.38
2023-07-01T16:16:00.295Z,9.55
2023-07-01T16:18:43.257Z,9.43
2023-07-01T16:21:09.945Z,9.40
2023-07-01T16:23:43.217Z,8.52
2023-07-01T16:26:10.852Z,10.90
2023-07-01T16:28:47.750Z,9.05
2023-07-01T16:31:21.744Z,8.52
2023-07-01T16:33:49.255Z,9.35
2023-07-01T16:36:19.953Z,8.95
2023-07-01T16:38:47.160Z,8.65
2023-07-01T16:41:16.249Z,10.57
2023-07-01T16:43:46.733Z,9.35
2023-07-01T16:48:53.170Z,9.15
2023-07-01T16:51:19.951Z,10.53
2023-07-01T16:54:02.828Z,9.52
2023-07-01T16:56:41.125Z,9.18
2023-07-01T17:00:10.859Z,8.32
2023-07-01T17:03:06.748Z,9.18
2023-07-01T17:05:35.831Z,9.80
2023-07-01T17:08:03.355Z,9.98
2023-07-01T17:10:40.672Z,9.40
2023-07-01T17:13:26.096Z,8.82
2023-07-01T17:15:53.482Z,8.70
2023-07-01T17:18:24.110Z,8.15
2023-07-01T17:23:17.065Z,8.02
2023-07-01T17:25:43.662Z,8.30
2023-07-01T17:28:10.182Z,7.35
2023-07-01T17:30:36.649Z,7.95
2023-07-01T17:33:03.283Z,8.70
2023-07-01T17:35:32.071Z,8.77
2023-07-01T17:38:00.796Z,7.60
2023-07-01T17:40:27.336Z,9.10
2023-07-01T17:42:53.961Z,8.68
2023-07-01T17:45:21.089Z,7.57
2023-07-01T17:47:47.878Z,7.50
2023-07-01T17:50:21.264Z,8.68
2023-07-01T17:52:50.366Z,6.93
2023-07-01T17:55:17.386Z,7.35
2023-07-01T17:57:55.307Z,7.07
2023-07-01T18:00:23.229Z,6.70
2023-07-01T18:02:50.069Z,8.40
2023-07-01T18:05:17.069Z,7.47
2023-07-01T18:07:43.877Z,6.28
2023-07-01T18:10:11.358Z,7.38
2023-07-01T18:12:39.223Z,6.85
2023-07-01T18:15:14.764Z,6.18
2023-07-01T18:17:42.699Z,7.00
2023-07-01T18:20:09.643Z,5.97
2023-07-01T18:22:37.427Z,6.90
2023-07-01T18:25:04.452Z,10.45
2023-07-01T18:27:30.936Z,10.02
2023-07-01T18:29:57.515Z,9.15
2023-07-01T18:32:25.174Z,9.70
2023-07-01T18:34:51.765Z,8.48
2023-07-01T18:37:18.236Z,8.57
2023-07-01T18:39:45.217Z,9.40
2023-07-01T18:42:11.736Z,9.32
2023-07-01T18:44:38.521Z,8.57
2023-07-01T18:47:05.471Z,8.05
2023-07-01T18:49:31.926Z,9.15
2023-07-01T18:51:58.459Z,9.07
2023-07-01T18:54:25.005Z,10.07
2023-07-01T18:56:51.501Z,10.02
2023-07-01T18:59:18.099Z,9.82
2023-07-01T19:01:44.618Z,8.75
2023-07-01T19:04:11.104Z,8.13
2023-07-01T19:06:37.545Z,8.70
2023-07-01T19:09:04.220Z,8.23
2023-07-01T19:11:30.663Z,8.23
2023-07-01T19:13:57.197Z,6.80
2023-07-01T19:16:24.240Z,8.25
2023-07-01T19:18:50.760Z,7.93
2023-07-01T19:21:18.840Z,9.65
2023-07-01T19:23:45.552Z,8.63
2023-07-01T19:26:12.921Z,8.88
2023-07-01T19:28:39.680Z,9.50
2023-07-01T19:31:06.850Z,9.85
2023-07-01T19:33:33.293Z,12.32
2023-07-01T19:35:59.761Z,11.65
2023-07-01T19:38:28.218Z,12.68
2023-07-01T19:40:54.832Z,12.23
2023-07-01T19:43:21.375Z,12.95
2023-07-01T19:45:49.848Z,14.90
2023-07-01T19:48:16.631Z,12.38
2023-07-01T19:50:43.936Z,14.15
2023-07-01T19:53:10.656Z,15.02
2023-07-01T19:55:37.118Z,13.85
2023-07-01T19:58:03.669Z,14.65
2023-07-01T20:00:30.197Z,16.02
2023-07-01T20:02:56.831Z,15.40
2023-07-01T20:05:24.123Z,14.52
2023-07-01T20:07:51.096Z,15.73
2023-07-01T20:10:28.878Z,17.05
2023-07-01T20:12:56.288Z,19.25
2023-07-01T20:15:22.776Z,18.65
2023-07-01T20:17:49.421Z,18.92
2023-07-01T20:20:16.095Z,17.58
2023-07-01T20:22:42.578Z,19.15
2023-07-01T20:25:11.298Z,20.45
2023-07-01T20:27:37.771Z,18.15
2023-07-01T20:30:06.495Z,20.30
2023-07-01T20:32:33.112Z,17.80
2023-07-01T20:34:59.642Z,22.60
2023-07-01T20:37:26.108Z,21.23
2023-07-01T20:39:53.008Z,19.08
2023-07-01T20:42:20.236Z,21.65
2023-07-01T20:44:49.306Z,21.55
2023-07-01T20:47:16.895Z,21.45
2023-07-01T20:49:47.960Z,20.67
2023-07-01T20:52:18.526Z,23.73
2023-07-01T20:57:13.425Z,21.15
2023-07-01T20:59:42.026Z,23.17
2023-07-01T21:02:09.766Z,22.58
2023-07-01T21:04:37.219Z,20.90
2023-07-01T21:07:04.920Z,22.65
2023-07-01T21:09:31.809Z,21.38
2023-07-01T21:11:58.445Z,21.73
2023-07-01T21:14:24.992Z,20.23
2023-07-01T21:16:51.700Z,21.88
2023-07-01T21:19:18.537Z,25.75
2023-07-01T21:21:45.468Z,21.40
2023-07-01T21:24:13.452Z,23.23
2023-07-01T21:26:40.248Z,26.65
2023-07-01T21:29:12.005Z,24.90
2023-07-01T21:31:43.063Z,27.48
2023-07-01T21:34:09.521Z,27.15
2023-07-01T21:36:35.978Z,25.77
2023-07-01T21:39:02.474Z,25.38
2023-07-01T21:41:28.928Z,24.33
2023-07-01T21:43:55.358Z,26.15
2023-07-01T21:46:21.820Z,25.90
2023-07-01T21:48:48.346Z,27.25
2023-07-01T21:51:14.989Z,25.20
2023-07-01T21:53:47.516Z,26.05
2023-07-01T21:56:16.711Z,27.00
2023-07-01T21:58:53.228Z,27.13
2023-07-01T22:01:29.544Z,28.35
2023-07-01T22:03:58.392Z,28.83
2023-07-01T22:06:30.847Z,29.05
2023-07-01T22:08:58.816Z,28.25
2023-07-01T22:11:25.481Z,27.88
2023-07-01T22:13:52.041Z,29.52
2023-07-01T22:16:18.853Z,29.38
2023-07-01T22:18:46.027Z,26.33
2023-07-01T22:21:12.927Z,34.10
2023-07-01T22:23:39.424Z,31.90
2023-07-01T22:26:06.211Z,30.88
2023-07-01T22:28:34.276Z,29.45
2023-07-01T22:31:06.028Z,31.77
2023-07-01T22:33:32.804Z,33.35
2023-07-01T22:35:59.550Z,33.85
2023-07-01T22:38:28.716Z,33.35
2023-07-01T22:40:55.932Z,34.22
2023-07-01T22:43:22.417Z,34.42
2023-07-01T22:45:49.059Z,34.03
2023-07-01T22:48:17.828Z,37.55
2023-07-01T22:50:45.221Z,38.50
2023-07-01T22:53:12.757Z,37.20
2023-07-01T22:55:39.322Z,36.85
2023-07-01T22:58:05.836Z,42.95
2023-07-01T23:00:32.344Z,40.78
2023-07-01T23:02:59.104Z,41.90
2023-07-01T23:05:25.819Z,39.63
2023-07-01T23:07:52.860Z,38.97
2023-07-01T23:10:19.378Z,39.70
2023-07-01T23:12:45.858Z,42.42
2023-07-01T23:15:12.345Z,40.22
2023-07-01T23:17:38.877Z,40.30
2023-07-01T23:20:06.231Z,33.80
2023-07-01T23:22:37.091Z,33.17
2023-07-01T23:25:08.698Z,34.65
2023-07-01T23:27:45.462Z,32.70
2023-07-01T23:30:15.156Z,30.67
2023-07-01T23:32:46.988Z,31.58
2023-07-01T23:35:14.101Z,31.38
2023-07-01T23:37:40.746Z,34.88
2023-07-01T23:40:08.265Z,35.55
2023-07-01T23:42:36.843Z,34.17
2023-07-01T23:45:05.524Z,37.17
2023-07-01T23:47:32.992Z,35.97
2023-07-01T23:50:01.322Z,36.08
2023-07-01T23:52:28.229Z,37.97
2023-07-01T23:54:54.764Z,36.40
2023-07-01T23:57:21.201Z,34.33
2023-07-01T23:59:49.205Z,39.67
